Time;durP1;ratioP1;P1;durP2;ratioP2;P2;SDS_P1;SDS_P2;PMS_P1;PMS_P2;Temp;Humidity;BMP_temperature;BMP_pressure;BME280_temperature;BME280_humidity;BME280_pressure;Samples;Min_cycle;Max_cycle;Signal;HPM_P1;HPM_P2
2022/09/30 00:00:28;;;;;;;14.95;10.10;;;7.30;99.90;;;;;;2603143;54;20026;31
2022/09/30 00:03:02;;;;;;;16.77;12.25;;;7.30;99.90;;;;;;2603292;54;20920;31
2022/09/30 00:05:37;;;;;;;20.52;14.02;;;7.30;99.90;;;;;;2602916;54;20895;31
2022/09/30 00:08:14;;;;;;;18.38;13.20;;;7.30;99.90;;;;;;2621297;47;20037;31
2022/09/30 00:10:48;;;;;;;23.08;14.73;;;7.30;99.90;;;;;;2603070;54;20042;31
2022/09/30 00:13:23;;;;;;;19.57;13.23;;;7.30;99.90;;;;;;2603123;54;20042;31
2022/09/30 00:15:58;;;;;;;21.65;15.40;;;7.20;99.90;;;;;;2621596;47;20038;31
2022/09/30 00:18:33;;;;;;;20.27;13.30;;;7.20;99.90;;;;;;2602733;54;20117;31
2022/09/30 00:21:08;;;;;;;21.98;12.60;;;7.20;99.90;;;;;;2612654;47;20309;31
2022/09/30 00:23:45;;;;;;;24.60;16.33;;;7.20;99.90;;;;;;2603197;54;20027;31
2022/09/30 00:26:22;;;;;;;21.85;14.25;;;7.20;99.90;;;;;;2602918;54;20876;31
2022/09/30 00:28:56;;;;;;;24.60;13.95;;;7.10;99.90;;;;;;2609083;39;22286;31
2022/09/30 00:31:31;;;;;;;24.05;13.68;;;7.20;99.90;;;;;;2602946;54;20034;31
2022/09/30 00:34:10;;;;;;;14.00;10.80;;;7.10;99.90;;;;;;2602774;54;20892;31
2022/09/30 00:36:45;;;;;;;15.00;11.20;;;7.00;99.90;;;;;;2602723;54;20905;31
2022/09/30 00:39:23;;;;;;;16.38;11.48;;;7.10;99.90;;;;;;2603012;54;20026;31
2022/09/30 00:41:59;;;;;;;20.67;10.73;;;7.00;99.90;;;;;;2602686;54;20923;31
2022/09/30 00:44:47;;;;;;;14.55;9.25;;;6.90;99.90;;;;;;2602784;54;20026;31
2022/09/30 00:47:50;;;;;;;17.30;9.63;;;6.90;99.90;;;;;;2602814;54;20026;31
2022/09/30 00:50:35;;;;;;;19.03;13.10;;;6.80;99.90;;;;;;2602643;54;20941;31
2022/09/30 00:53:12;;;;;;;17.70;11.80;;;6.80;99.90;;;;;;2621372;47;20060;31
2022/09/30 00:55:56;;;;;;;14.95;11.18;;;6.70;99.90;;;;;;2603027;54;20033;31
2022/09/30 00:58:33;;;;;;;15.60;11.43;;;6.80;99.90;;;;;;2603007;54;20891;31
2022/09/30 01:01:08;;;;;;;;;;;6.80;99.90;;;;;;2603707;54;20089;31
2022/09/30 01:03:43;;;;;;;12.60;8.60;;;6.80;99.90;;;;;;2603603;54;19941;31
2022/09/30 01:06:17;;;;;;;18.55;12.30;;;6.80;99.90;;;;;;2702329;39;22265;31
2022/09/30 01:08:51;;;;;;;17.52;11.82;;;6.80;99.90;;;;;;2603633;54;20243;31
2022/09/30 01:11:28;;;;;;;19.55;13.40;;;6.80;99.90;;;;;;2603660;54;20859;31
2022/09/30 01:14:05;;;;;;;20.40;13.60;;;6.80;99.90;;;;;;2603652;54;20043;31
2022/09/30 01:16:52;;;;;;;17.55;13.10;;;6.90;99.90;;;;;;2603518;54;20049;31
2022/09/30 01:20:02;;;;;;;16.05;12.27;;;6.90;99.90;;;;;;2603507;54;20030;31
2022/09/30 01:22:41;;;;;;;17.92;12.52;;;6.90;99.90;;;;;;2603411;54;20043;31
2022/09/30 01:25:42;;;;;;;21.65;14.85;;;7.00;99.90;;;;;;2603798;54;20026;31
2022/09/30 01:28:46;;;;;;;22.25;15.07;;;7.00;99.90;;;;;;2603192;54;20912;31
2022/09/30 01:31:29;;;;;;;19.27;14.02;;;7.10;99.90;;;;;;2603337;54;20943;31
2022/09/30 01:34:06;;;;;;;22.60;16.45;;;7.10;99.90;;;;;;2603321;54;20033;31
2022/09/30 01:36:48;;;;;;;23.10;17.25;;;7.10;99.90;;;;;;2603670;54;20060;31
2022/09/30 01:39:29;;;;;;;25.20;17.05;;;7.20;99.90;;;;;;2603415;54;20042;31
2022/09/30 01:42:12;;;;;;;22.23;15.77;;;7.20;99.90;;;;;;2603321;54;20082;31
2022/09/30 01:44:50;;;;;;;24.70;17.83;;;7.20;99.90;;;;;;2603553;54;20047;31
2022/09/30 01:47:29;;;;;;;25.67;18.67;;;7.20;99.90;;;;;;2603553;54;20887;31
2022/09/30 01:50:04;;;;;;;20.38;15.25;;;7.30;99.90;;;;;;2622457;46;20823;31
2022/09/30 01:52:42;;;;;;;25.87;17.83;;;7.30;99.90;;;;;;2603660;54;20108;31
2022/09/30 01:55:19;;;;;;;26.48;19.10;;;7.30;99.90;;;;;;2603754;54;20809;31
2022/09/30 01:57:57;;;;;;;31.30;20.73;;;7.30;99.90;;;;;;2622070;46;20826;31
2022/09/30 02:00:31;;;;;;;24.85;17.90;;;7.40;99.90;;;;;;2622289;46;20042;31
2022/09/30 02:03:11;;;;;;;26.23;18.43;;;7.40;99.90;;;;;;2603501;54;20879;31
2022/09/30 02:05:46;;;;;;;22.45;16.48;;;7.40;99.90;;;;;;2603526;54;20018;31
2022/09/30 02:08:23;;;;;;;26.10;18.33;;;7.40;99.90;;;;;;2603541;54;20048;31
2022/09/30 02:10:59;;;;;;;22.05;16.33;;;7.40;99.90;;;;;;2603053;54;20908;31
2022/09/30 02:13:34;;;;;;;26.45;17.40;;;7.40;99.90;;;;;;2603441;54;20888;31
2022/09/30 02:16:14;;;;;;;27.98;19.00;;;7.40;99.90;;;;;;2603365;54;20122;31
2022/09/30 02:18:52;;;;;;;19.25;14.45;;;7.50;99.90;;;;;;2603213;54;20101;31
2022/09/30 02:21:28;;;;;;;20.52;15.20;;;7.50;99.90;;;;;;2603433;54;20035;31
2022/09/30 02:24:04;;;;;;;25.97;18.83;;;7.50;99.90;;;;;;2603307;54;20042;31
2022/09/30 02:26:39;;;;;;;26.15;18.98;;;7.50;99.90;;;;;;2603441;54;20026;31
2022/09/30 02:29:17;;;;;;;23.80;17.07;;;7.60;99.90;;;;;;2603495;54;20049;31
2022/09/30 02:31:52;;;;;;;23.90;16.67;;;7.50;99.90;;;;;;2621878;46;20939;31
2022/09/30 02:34:31;;;;;;;25.05;17.65;;;7.60;99.90;;;;;;2603251;54;20018;31
2022/09/30 02:37:08;;;;;;;24.07;15.83;;;7.50;99.90;;;;;;2603300;54;20034;31
2022/09/30 02:39:44;;;;;;;26.92;20.65;;;7.60;99.90;;;;;;2621498;46;20724;31
2022/09/30 02:42:21;;;;;;;25.30;17.38;;;7.60;99.90;;;;;;2612902;46;20022;31
2022/09/30 02:44:53;;;;;;;25.70;18.15;;;7.60;99.90;;;;;;2609533;39;22386;31
2022/09/30 02:47:29;;;;;;;25.55;18.20;;;7.60;99.90;;;;;;2615680;46;20896;31
2022/09/30 02:50:07;;;;;;;;;;;7.60;99.90;;;;;;2603519;54;20038;31
2022/09/30 02:52:40;;;;;;;28.70;18.65;;;7.60;99.90;;;;;;2602686;54;20762;31
2022/09/30 02:55:19;;;;;;;23.87;16.70;;;7.70;99.90;;;;;;2609743;46;20030;31
2022/09/30 02:58:00;;;;;;;21.98;16.40;;;7.70;99.90;;;;;;2603206;54;20249;31
2022/09/30 03:00:35;;;;;;;20.80;13.80;;;7.70;99.90;;;;;;2603351;54;20867;31
2022/09/30 03:03:09;;;;;;;26.88;17.80;;;7.70;99.90;;;;;;2773376;31;22519;31
2022/09/30 03:05:46;;;;;;;24.45;18.13;;;7.70;99.90;;;;;;2603100;54;20022;31
2022/09/30 03:08:20;;;;;;;31.08;21.40;;;7.70;99.90;;;;;;2603461;54;20034;31
2022/09/30 03:10:56;;;;;;;27.35;20.73;;;7.80;99.90;;;;;;2603950;46;20840;31
2022/09/30 03:13:42;;;;;;;27.65;20.10;;;7.80;99.90;;;;;;2603249;54;20038;31
2022/09/30 03:16:20;;;;;;;30.45;21.40;;;7.80;99.90;;;;;;2603218;54;20852;31
2022/09/30 03:19:05;;;;;;;28.00;20.40;;;7.80;99.90;;;;;;2603143;54;20109;31
2022/09/30 03:21:54;;;;;;;24.55;17.67;;;7.80;99.90;;;;;;2603019;54;20033;31
2022/09/30 03:24:54;;;;;;;25.15;18.05;;;7.80;99.90;;;;;;2603054;54;20030;31
2022/09/30 03:27:33;;;;;;;26.70;19.90;;;7.80;99.90;;;;;;2602931;54;19935;31
2022/09/30 03:30:09;;;;;;;24.48;16.85;;;7.80;99.90;;;;;;2603363;54;20034;31
2022/09/30 03:32:54;;;;;;;23.65;17.75;;;7.80;99.90;;;;;;2603339;54;20076;31
2022/09/30 03:35:27;;;;;;;24.10;17.75;;;7.90;99.90;;;;;;2603402;54;20036;31
2022/09/30 03:38:05;;;;;;;29.70;21.30;;;7.90;99.90;;;;;;2624702;39;21051;31
2022/09/30 03:40:42;;;;;;;31.95;19.35;;;7.80;99.90;;;;;;2621866;46;20876;31
2022/09/30 03:43:21;;;;;;;29.63;22.80;;;7.90;99.90;;;;;;2603966;47;20838;31
2022/09/30 03:46:00;;;;;;;31.75;21.52;;;7.90;99.90;;;;;;2612823;46;20101;31
2022/09/30 03:48:35;;;;;;;29.27;19.23;;;7.90;99.90;;;;;;2603026;54;19942;31
2022/09/30 03:51:09;;;;;;;29.57;20.33;;;7.80;99.90;;;;;;2603054;54;20984;31
2022/09/30 03:53:46;;;;;;;28.13;21.25;;;7.90;99.90;;;;;;2602900;54;20033;31
2022/09/30 03:56:27;;;;;;;32.63;22.92;;;7.90;99.90;;;;;;2603128;54;20049;31
2022/09/30 03:59:01;;;;;;;27.83;20.17;;;7.90;99.90;;;;;;2603210;54;20048;31
2022/09/30 04:01:36;;;;;;;28.90;20.90;;;7.90;99.90;;;;;;2603100;54;20030;31
2022/09/30 04:04:11;;;;;;;30.05;22.73;;;7.90;99.90;;;;;;2603125;54;20130;31
2022/09/30 04:06:46;;;;;;;35.93;23.20;;;7.90;99.90;;;;;;2602969;54;20022;31
2022/09/30 04:09:23;;;;;;;34.80;24.55;;;7.90;99.90;;;;;;2603126;54;20915;31
2022/09/30 04:11:58;;;;;;;28.17;21.23;;;7.90;99.90;;;;;;2602930;54;20019;31
2022/09/30 04:14:32;;;;;;;32.72;22.45;;;7.90;99.90;;;;;;2602879;54;20841;31
2022/09/30 04:17:07;;;;;;;25.08;18.98;;;7.90;99.90;;;;;;2603180;54;20848;31
2022/09/30 04:19:41;;;;;;;31.87;23.10;;;7.90;99.90;;;;;;2621574;47;20903;31
2022/09/30 04:22:18;;;;;;;32.63;23.63;;;8.00;99.90;;;;;;2603044;54;20866;31
2022/09/30 04:25:02;;;;;;;29.25;21.35;;;7.90;99.90;;;;;;2602939;54;20856;31
2022/09/30 04:27:37;;;;;;;23.17;16.80;;;7.90;99.90;;;;;;2603102;54;20033;31
2022/09/30 04:30:12;;;;;;;30.95;22.35;;;7.90;99.90;;;;;;2619766;39;21030;31
2022/09/30 04:32:47;;;;;;;34.57;23.73;;;7.90;99.90;;;;;;2603140;54;20929;31
2022/09/30 04:35:28;;;;;;;29.92;19.60;;;8.00;99.90;;;;;;2603834;54;20022;31
2022/09/30 04:38:06;;;;;;;33.77;22.70;;;7.90;99.90;;;;;;2603805;54;20048;31
2022/09/30 04:40:43;;;;;;;27.75;19.25;;;8.00;99.90;;;;;;2603765;54;20878;31
2022/09/30 04:43:19;;;;;;;26.63;18.75;;;8.00;99.90;;;;;;2603838;54;20942;31
2022/09/30 04:45:55;;;;;;;28.30;20.95;;;8.00;99.90;;;;;;2603585;54;20109;31
2022/09/30 04:48:31;;;;;;;35.22;24.95;;;8.00;99.90;;;;;;2603635;54;20031;31
2022/09/30 04:51:06;;;;;;;27.20;19.23;;;8.10;99.90;;;;;;2603816;54;20834;31
2022/09/30 04:53:41;;;;;;;25.42;18.40;;;8.10;99.90;;;;;;2603524;54;20811;31
2022/09/30 04:56:19;;;;;;;23.52;18.33;;;8.10;99.90;;;;;;2602924;54;20034;31
2022/09/30 04:58:55;;;;;;;25.35;18.05;;;8.10;99.90;;;;;;2603489;54;20897;31
2022/09/30 05:01:53;;;;;;;23.98;19.05;;;8.10;99.90;;;;;;2603731;54;20031;31
2022/09/30 05:04:28;;;;;;;25.35;18.10;;;8.20;99.90;;;;;;2603461;54;20026;31
2022/09/30 05:07:07;;;;;;;22.40;16.00;;;8.10;99.90;;;;;;2603830;54;20909;31
2022/09/30 05:09:42;;;;;;;26.90;18.80;;;8.20;99.90;;;;;;2603468;54;20121;31
2022/09/30 05:12:19;;;;;;;21.55;15.98;;;8.20;99.90;;;;;;2621956;46;20030;31
2022/09/30 05:14:55;;;;;;;19.02;14.35;;;8.20;99.90;;;;;;2603790;54;20925;31
2022/09/30 05:17:31;;;;;;;34.85;21.92;;;8.20;99.90;;;;;;2603631;54;20022;31
2022/09/30 05:20:09;;;;;;;35.10;23.88;;;8.40;99.90;;;;;;2603679;54;20848;31
2022/09/30 05:22:43;;;;;;;29.65;22.13;;;8.30;99.90;;;;;;2603760;54;20885;31
2022/09/30 05:25:17;;;;;;;41.15;26.23;;;8.30;99.90;;;;;;2622385;46;20884;31
2022/09/30 05:27:54;;;;;;;36.43;23.00;;;8.40;99.90;;;;;;2603880;54;20026;31
2022/09/30 05:30:28;;;;;;;32.55;24.90;;;8.40;99.90;;;;;;2603722;54;20953;31
2022/09/30 05:33:03;;;;;;;33.60;24.77;;;8.40;99.90;;;;;;2603434;54;20049;31
2022/09/30 05:35:38;;;;;;;35.40;23.83;;;8.40;99.90;;;;;;2603771;54;20089;31
2022/09/30 05:38:14;;;;;;;28.85;19.50;;;8.50;99.90;;;;;;2603747;54;20804;31
2022/09/30 05:40:48;;;;;;;39.63;25.30;;;8.60;99.90;;;;;;2603607;54;20035;31
2022/09/30 05:43:26;;;;;;;39.20;25.08;;;8.50;99.90;;;;;;2603532;54;20055;31
2022/09/30 05:46:02;;;;;;;39.72;26.40;;;8.50;99.90;;;;;;2603343;54;20052;31
2022/09/30 05:48:38;;;;;;;34.10;23.60;;;8.60;99.90;;;;;;2603524;54;20844;31
2022/09/30 05:51:13;;;;;;;35.95;24.92;;;8.60;99.90;;;;;;2603614;54;20038;31
2022/09/30 05:53:48;;;;;;;42.67;27.75;;;8.80;99.90;;;;;;2603511;54;20054;31
2022/09/30 05:56:22;;;;;;;37.08;26.13;;;8.70;99.90;;;;;;2620036;46;20797;31
2022/09/30 05:58:59;;;;;;;31.90;23.50;;;8.70;99.90;;;;;;2603387;54;20048;31
2022/09/30 06:01:34;;;;;;;34.75;24.83;;;8.70;99.90;;;;;;2622045;46;20054;31
2022/09/30 06:04:10;;;;;;;33.08;24.08;;;8.80;99.90;;;;;;2603396;54;20030;31
2022/09/30 06:06:44;;;;;;;33.60;24.10;;;8.80;99.90;;;;;;2612932;46;20126;31
2022/09/30 06:09:21;;;;;;;38.72;28.02;;;8.90;99.90;;;;;;2610407;46;20830;31
2022/09/30 06:11:59;;;;;;;45.67;29.83;;;8.90;99.90;;;;;;2603218;54;20905;31
2022/09/30 06:14:36;;;;;;;41.97;29.30;;;8.90;99.90;;;;;;2603277;54;20877;31
2022/09/30 06:17:15;;;;;;;32.80;23.15;;;8.90;99.90;;;;;;2603530;54;20850;31
2022/09/30 06:19:50;;;;;;;37.13;25.23;;;8.90;99.90;;;;;;2602983;54;20026;31
2022/09/30 06:22:25;;;;;;;41.92;28.80;;;9.00;99.90;;;;;;2603485;54;20026;31
2022/09/30 06:25:01;;;;;;;42.72;28.90;;;9.00;99.90;;;;;;2603185;54;20026;31
2022/09/30 06:27:36;;;;;;;37.50;25.77;;;9.00;99.90;;;;;;2603285;54;19935;31
2022/09/30 06:30:15;;;;;;;36.20;26.95;;;9.10;99.90;;;;;;2603147;54;20911;31
2022/09/30 06:32:50;;;;;;;28.50;20.73;;;9.10;99.90;;;;;;2602538;54;20931;31
2022/09/30 06:35:23;;;;;;;38.45;28.45;;;9.20;99.90;;;;;;2702007;39;20998;31
2022/09/30 06:37:59;;;;;;;37.00;27.15;;;9.20;99.90;;;;;;2603330;54;20046;31
2022/09/30 06:40:33;;;;;;;34.07;25.70;;;9.20;99.90;;;;;;2608414;46;20085;31
2022/09/30 06:43:08;;;;;;;38.08;25.02;;;9.20;99.90;;;;;;2604184;46;20262;31
2022/09/30 06:45:50;;;;;;;36.47;25.67;;;9.30;99.90;;;;;;2603199;54;20041;31
2022/09/30 06:48:28;;;;;;;59.70;50.95;;;9.30;99.90;;;;;;2604523;46;20853;31
2022/09/30 06:51:11;;;;;;;42.90;34.92;;;9.40;99.90;;;;;;2603232;54;20027;31
2022/09/30 06:53:48;;;;;;;39.88;28.08;;;9.40;99.90;;;;;;2603132;54;20823;31
2022/09/30 06:56:27;;;;;;;38.63;29.08;;;9.40;99.90;;;;;;2603328;54;20053;31
2022/09/30 06:59:02;;;;;;;44.30;28.00;;;9.40;99.90;;;;;;2621527;46;20849;31
2022/09/30 07:01:41;;;;;;;40.78;28.75;;;9.40;99.90;;;;;;2602986;54;20957;31
2022/09/30 07:04:16;;;;;;;40.25;27.90;;;9.50;99.90;;;;;;2603180;54;20042;31
2022/09/30 07:06:52;;;;;;;39.60;27.90;;;9.50;99.90;;;;;;2603368;54;20919;31
2022/09/30 07:09:27;;;;;;;35.92;26.08;;;9.50;99.90;;;;;;2603181;54;20831;31
2022/09/30 07:12:05;;;;;;;40.20;27.10;;;9.50;99.90;;;;;;2603177;54;20125;31
2022/09/30 07:14:39;;;;;;;32.53;24.30;;;9.50;99.90;;;;;;2602963;54;20109;31
2022/09/30 07:17:17;;;;;;;36.53;25.75;;;9.60;99.90;;;;;;2603026;54;20026;31
2022/09/30 07:19:53;;;;;;;39.65;29.33;;;9.60;99.90;;;;;;2603349;54;20022;31
2022/09/30 07:22:33;;;;;;;37.28;26.70;;;9.60;99.90;;;;;;2603184;54;20053;31
2022/09/30 07:25:10;;;;;;;32.67;25.02;;;9.60;99.90;;;;;;2602970;54;20089;31
2022/09/30 07:27:45;;;;;;;33.47;25.80;;;9.70;99.90;;;;;;2621647;46;20046;31
2022/09/30 07:30:20;;;;;;;30.20;22.70;;;9.70;99.90;;;;;;2602979;54;20085;31
2022/09/30 07:33:04;;;;;;;37.25;26.85;;;9.80;99.90;;;;;;2603284;54;20275;31
2022/09/30 07:35:39;;;;;;;31.75;24.00;;;9.80;99.90;;;;;;2602836;54;20085;31
2022/09/30 07:38:16;;;;;;;41.97;32.57;;;9.80;99.90;;;;;;2603311;54;20741;31
2022/09/30 07:40:58;;;;;;;38.85;31.65;;;9.90;99.90;;;;;;2602929;54;20023;31
2022/09/30 07:43:37;;;;;;;34.50;26.00;;;9.90;99.90;;;;;;2602982;54;20808;31
2022/09/30 07:46:12;;;;;;;39.63;32.23;;;10.00;99.90;;;;;;2617365;46;20027;31
2022/09/30 07:48:51;;;;;;;33.10;24.65;;;10.00;99.90;;;;;;2603186;54;19961;31
2022/09/30 07:51:29;;;;;;;35.42;27.33;;;10.00;99.90;;;;;;2603256;54;20062;31
2022/09/30 07:54:06;;;;;;;38.28;26.10;;;10.10;99.90;;;;;;2621635;46;20089;31
2022/09/30 07:56:42;;;;;;;36.53;26.88;;;10.10;99.90;;;;;;2621740;46;20848;31
2022/09/30 07:59:39;;;;;;;41.28;27.20;;;10.10;99.90;;;;;;2621680;46;20857;31
2022/09/30 08:02:16;;;;;;;37.67;26.23;;;10.20;99.90;;;;;;2603000;54;20054;31
2022/09/30 08:04:54;;;;;;;27.70;20.88;;;10.20;99.90;;;;;;2701249;39;21459;31
2022/09/30 08:07:30;;;;;;;31.63;24.30;;;10.30;99.90;;;;;;2602953;54;20960;31
2022/09/30 08:10:04;;;;;;;;;;;10.40;99.90;;;;;;2603859;54;20024;31
2022/09/30 08:12:39;;;;;;;36.13;24.65;;;10.50;99.90;;;;;;2622478;46;19941;31
2022/09/30 08:15:13;;;;;;;31.77;21.88;;;10.50;99.90;;;;;;2603852;54;20026;31
2022/09/30 08:17:48;;;;;;;36.03;25.83;;;10.60;99.90;;;;;;2621983;46;20830;31
2022/09/30 08:20:27;;;;;;;37.10;26.53;;;10.60;99.90;;;;;;2603799;54;20046;31
2022/09/30 08:23:02;;;;;;;40.08;27.30;;;10.70;99.90;;;;;;2603915;54;20838;31
2022/09/30 08:25:37;;;;;;;35.22;24.45;;;10.80;99.90;;;;;;2603800;54;20026;31
2022/09/30 08:28:13;;;;;;;35.17;26.73;;;10.80;99.90;;;;;;2603500;54;20872;31
2022/09/30 08:30:49;;;;;;;35.67;24.92;;;10.90;99.90;;;;;;2603744;54;20023;31
2022/09/30 08:33:24;;;;;;;33.65;23.63;;;10.90;99.90;;;;;;2604629;46;20153;31
2022/09/30 08:36:04;;;;;;;37.83;27.52;;;11.00;99.90;;;;;;2603710;54;20034;31
2022/09/30 08:38:38;;;;;;;40.40;28.13;;;11.00;99.90;;;;;;2603875;54;20870;31
2022/09/30 08:41:24;;;;;;;35.35;26.25;;;11.00;99.90;;;;;;2603748;54;20057;31
2022/09/30 08:44:05;;;;;;;37.00;26.70;;;11.20;99.90;;;;;;2603551;54;25121;31
2022/09/30 08:46:43;;;;;;;38.10;28.65;;;11.10;99.90;;;;;;2622255;46;20920;31
2022/09/30 08:49:36;;;;;;;32.15;26.20;;;11.20;99.90;;;;;;2603617;54;20022;31
2022/09/30 08:52:16;;;;;;;26.60;20.92;;;11.20;99.90;;;;;;2613246;46;20044;31
2022/09/30 08:55:13;;;;;;;27.45;21.25;;;11.30;99.90;;;;;;2603831;54;20856;31
2022/09/30 08:57:52;;;;;;;32.20;22.63;;;11.30;99.90;;;;;;2603688;54;20890;31
2022/09/30 09:00:30;;;;;;;36.05;25.35;;;11.40;99.90;;;;;;2603646;54;20924;31
2022/09/30 09:03:04;;;;;;;33.20;24.88;;;11.40;99.90;;;;;;2603492;54;20920;31
2022/09/30 09:05:45;;;;;;;85.40;65.15;;;11.50;99.90;;;;;;2603584;54;20046;31
2022/09/30 09:08:32;;;;;;;57.90;45.40;;;11.60;99.90;;;;;;2603436;54;20984;31
2022/09/30 09:11:09;;;;;;;41.75;30.08;;;11.60;99.90;;;;;;2603740;54;20150;31
2022/09/30 09:13:49;;;;;;;33.63;27.15;;;11.70;99.90;;;;;;2603601;54;20862;31
2022/09/30 09:16:25;;;;;;;30.05;22.80;;;11.80;99.90;;;;;;2603382;54;20835;31
2022/09/30 09:19:01;;;;;;;28.45;21.15;;;11.80;99.90;;;;;;2603631;54;20876;31
2022/09/30 09:21:43;;;;;;;31.47;20.53;;;11.90;99.90;;;;;;2603768;54;20038;31
2022/09/30 09:24:24;;;;;;;48.13;23.20;;;12.00;99.90;;;;;;2603663;54;20034;31
2022/09/30 09:26:59;;;;;;;26.03;19.17;;;12.10;99.90;;;;;;2603511;54;19935;31
2022/09/30 09:29:40;;;;;;;29.67;19.80;;;12.30;99.90;;;;;;2603664;54;20928;31
2022/09/30 09:32:16;;;;;;;28.95;18.85;;;12.50;99.90;;;;;;2603156;54;20137;31
2022/09/30 09:34:54;;;;;;;25.38;18.13;;;12.60;99.90;;;;;;2603508;54;20895;31
2022/09/30 09:40:26;;;;;;;26.60;20.93;;;12.70;99.90;;;;;;2603423;54;20932;31
2022/09/30 09:43:05;;;;;;;26.20;19.45;;;12.80;99.90;;;;;;2603407;54;20038;31
2022/09/30 09:45:44;;;;;;;23.33;19.65;;;12.80;99.90;;;;;;2603528;54;20132;31
2022/09/30 09:48:16;;;;;;;25.08;19.05;;;12.80;99.90;;;;;;2603699;54;20027;31
2022/09/30 09:50:57;;;;;;;27.10;20.30;;;12.90;99.90;;;;;;2603422;54;20052;31
2022/09/30 09:53:47;;;;;;;21.33;18.87;;;12.90;99.90;;;;;;2603452;54;20023;31
2022/09/30 09:56:25;;;;;;;24.60;18.73;;;13.00;99.90;;;;;;2603482;54;20030;31
2022/09/30 09:59:10;;;;;;;23.85;18.63;;;13.00;99.90;;;;;;2604254;46;20068;31
2022/09/30 10:01:45;;;;;;;20.80;17.63;;;13.10;99.90;;;;;;2604458;46;20022;31
2022/09/30 10:04:23;;;;;;;23.80;16.98;;;13.20;99.90;;;;;;2603323;54;20026;31
2022/09/30 10:06:58;;;;;;;21.30;17.30;;;13.20;99.90;;;;;;2603724;54;20022;31
2022/09/30 10:09:34;;;;;;;25.38;17.60;;;13.20;99.90;;;;;;2603691;54;19934;31
2022/09/30 10:12:41;;;;;;;23.23;18.52;;;13.20;99.90;;;;;;2603426;54;20081;31
2022/09/30 10:15:15;;;;;;;21.48;16.65;;;13.20;99.90;;;;;;2604401;46;20929;31
2022/09/30 10:17:56;;;;;;;24.80;16.48;;;13.20;99.90;;;;;;2603234;54;20105;31
2022/09/30 10:20:32;;;;;;;20.90;16.27;;;13.20;99.90;;;;;;2603278;54;20904;31
2022/09/30 10:23:11;;;;;;;23.42;15.93;;;13.20;99.90;;;;;;2603486;54;20069;31
2022/09/30 10:26:12;;;;;;;20.05;16.00;;;13.30;99.90;;;;;;2603429;54;20904;31
2022/09/30 10:28:47;;;;;;;23.70;17.75;;;13.30;99.90;;;;;;2603262;54;20022;31
2022/09/30 10:31:25;;;;;;;21.73;17.67;;;13.30;99.90;;;;;;2612814;46;20138;31
2022/09/30 10:34:04;;;;;;;21.08;17.17;;;13.30;99.90;;;;;;2603674;54;20018;31
2022/09/30 10:36:39;;;;;;;20.63;16.00;;;13.40;99.90;;;;;;2603246;54;20026;31
2022/09/30 10:39:22;;;;;;;23.27;15.25;;;13.40;99.90;;;;;;2603576;54;20022;31
2022/09/30 10:42:03;;;;;;;17.37;13.37;;;13.50;99.90;;;;;;2603605;54;19965;31
2022/09/30 10:44:40;;;;;;;18.58;13.65;;;13.60;99.90;;;;;;2603216;54;20022;31
2022/09/30 10:47:16;;;;;;;26.20;15.40;;;13.70;99.90;;;;;;2603438;54;20045;31
2022/09/30 10:49:55;;;;;;;17.48;12.90;;;13.70;99.90;;;;;;2609717;46;20058;31
2022/09/30 10:52:30;;;;;;;20.05;12.95;;;13.90;99.90;;;;;;2603198;54;20137;31
2022/09/30 10:55:04;;;;;;;18.30;13.50;;;13.80;99.90;;;;;;2603424;54;20868;31
2022/09/30 10:57:46;;;;;;;16.10;12.53;;;14.00;99.90;;;;;;2621427;46;20022;31
2022/09/30 11:00:21;;;;;;;17.67;12.73;;;14.20;99.90;;;;;;2603546;54;20118;31
2022/09/30 11:02:57;;;;;;;16.55;11.55;;;14.30;99.90;;;;;;2603253;54;19937;31
2022/09/30 11:05:32;;;;;;;;;;;14.30;99.90;;;;;;2603547;54;20018;31
2022/09/30 11:08:08;;;;;;;16.85;11.35;;;14.40;99.90;;;;;;2604137;46;19935;31
2022/09/30 11:10:46;;;;;;;16.38;11.45;;;14.50;99.90;;;;;;2603098;54;20019;31
2022/09/30 11:13:24;;;;;;;18.27;11.23;;;14.50;99.90;;;;;;2603182;54;20061;31
2022/09/30 11:16:03;;;;;;;17.10;11.20;;;14.60;99.90;;;;;;2603179;54;20154;31
2022/09/30 11:18:43;;;;;;;15.50;10.82;;;14.50;99.90;;;;;;2603364;54;20030;31
2022/09/30 11:21:17;;;;;;;16.58;11.45;;;14.60;99.90;;;;;;2603188;54;20054;31
2022/09/30 11:23:55;;;;;;;16.55;10.95;;;14.60;99.90;;;;;;2621671;46;20805;31
2022/09/30 11:26:35;;;;;;;11.85;8.85;;;14.70;99.90;;;;;;2603242;54;20048;31
2022/09/30 11:29:28;;;;;;;17.45;12.80;;;14.80;99.90;;;;;;2621836;46;20888;31
2022/09/30 11:32:06;;;;;;;14.85;10.98;;;14.90;99.90;;;;;;2603240;54;20878;31
2022/09/30 11:34:48;;;;;;;16.23;10.90;;;14.90;99.90;;;;;;2603246;54;20179;31
2022/09/30 11:37:28;;;;;;;18.40;11.60;;;15.00;99.90;;;;;;2602950;54;20823;31
2022/09/30 11:40:26;;;;;;;15.98;11.68;;;15.10;99.90;;;;;;2603096;54;20094;31
2022/09/30 11:43:06;;;;;;;13.40;10.45;;;15.10;99.90;;;;;;2602863;54;20851;31
2022/09/30 11:45:58;;;;;;;13.38;9.43;;;15.20;99.90;;;;;;2603042;54;20077;31
2022/09/30 11:48:37;;;;;;;14.85;10.07;;;15.20;99.90;;;;;;2603044;54;20027;31
2022/09/30 11:51:17;;;;;;;15.87;10.03;;;15.30;99.90;;;;;;2603364;54;20050;31
2022/09/30 11:53:58;;;;;;;11.80;8.90;;;15.30;99.90;;;;;;2603105;54;20030;31
2022/09/30 11:56:41;;;;;;;11.47;8.60;;;15.30;99.90;;;;;;2602764;54;20950;31
2022/09/30 11:59:19;;;;;;;12.30;7.55;;;15.30;99.90;;;;;;2603038;54;20801;31
2022/09/30 12:01:54;;;;;;;12.07;9.10;;;15.40;99.90;;;;;;2603172;54;20034;31
2022/09/30 12:04:31;;;;;;;12.45;8.43;;;15.50;99.90;;;;;;2602837;54;19952;31
2022/09/30 12:07:07;;;;;;;11.27;8.68;;;15.50;99.90;;;;;;2602751;54;20560;31
2022/09/30 12:09:42;;;;;;;15.82;9.15;;;15.60;99.90;;;;;;2603032;54;20880;31
2022/09/30 12:12:21;;;;;;;14.67;9.70;;;15.60;99.90;;;;;;2602948;54;20109;31
2022/09/30 12:14:57;;;;;;;11.40;8.18;;;15.70;99.90;;;;;;2602837;54;20948;31
2022/09/30 12:17:33;;;;;;;10.15;7.65;;;15.80;99.90;;;;;;2603149;54;20047;31
2022/09/30 12:20:13;;;;;;;14.70;8.85;;;15.80;99.90;;;;;;2603140;54;20836;31
2022/09/30 12:22:48;;;;;;;14.45;8.07;;;15.80;99.90;;;;;;2602877;54;20912;31
2022/09/30 12:25:21;;;;;;;12.93;7.53;;;15.90;99.90;;;;;;2603973;54;20081;31
2022/09/30 12:30:15;;;;;;;9.43;7.13;;;16.00;99.90;;;;;;2602893;54;20913;31
2022/09/30 12:30:55;;;;;;;10.25;6.30;;;16.00;99.90;;;;;;2603103;54;20048;31
2022/09/30 12:33:39;;;;;;;8.00;6.78;;;16.10;99.90;;;;;;2602832;54;20026;31
2022/09/30 12:36:23;;;;;;;9.40;5.70;;;16.10;99.90;;;;;;2602882;54;20932;31
2022/09/30 12:39:19;;;;;;;8.90;5.00;;;16.10;99.90;;;;;;2621222;47;20030;31
2022/09/30 12:42:05;;;;;;;8.85;5.65;;;16.10;99.90;;;;;;2602986;54;20077;31
2022/09/30 12:44:54;;;;;;;;;;;16.10;99.90;;;;;;2610668;54;20879;31
2022/09/30 12:47:32;;;;;;;10.43;5.65;;;16.10;99.90;;;;;;2605747;54;19934;31
2022/09/30 12:50:08;;;;;;;6.50;4.90;;;16.10;99.90;;;;;;2602764;54;20027;31
2022/09/30 12:52:43;;;;;;;10.40;5.90;;;16.10;99.90;;;;;;2602884;54;20081;31
2022/09/30 12:55:24;;;;;;;11.05;5.30;;;16.10;99.90;;;;;;2604364;47;20042;31
2022/09/30 12:57:59;;;;;;;8.30;5.95;;;16.10;99.90;;;;;;2603501;54;20958;31
2022/09/30 13:00:36;;;;;;;7.25;5.05;;;16.10;99.90;;;;;;2622004;46;20864;31
2022/09/30 13:03:16;;;;;;;7.07;4.93;;;16.10;99.90;;;;;;2603646;54;20027;31
2022/09/30 13:05:58;;;;;;;9.05;5.05;;;16.10;99.90;;;;;;2603828;54;20031;31
2022/09/30 13:09:08;;;;;;;7.50;5.30;;;16.10;99.90;;;;;;2603985;54;20046;31
2022/09/30 13:11:43;;;;;;;6.00;4.40;;;16.10;99.90;;;;;;2622411;46;20851;31
2022/09/30 13:14:26;;;;;;;7.15;5.13;;;16.10;99.90;;;;;;2603612;54;20906;31
2022/09/30 13:17:06;;;;;;;9.13;5.07;;;16.10;99.90;;;;;;2603521;54;21093;31
2022/09/30 13:19:41;;;;;;;9.02;5.57;;;16.10;99.90;;;;;;2603611;54;20042;31
2022/09/30 13:22:54;;;;;;;7.88;5.13;;;16.10;99.90;;;;;;2603699;54;20028;31
2022/09/30 13:28:28;;;;;;;6.05;4.45;;;16.20;99.90;;;;;;2603490;54;20033;31
2022/09/30 13:31:20;;;;;;;8.70;4.50;;;16.20;99.90;;;;;;2603365;54;20083;31
2022/09/30 13:34:12;;;;;;;5.75;3.53;;;16.20;99.90;;;;;;2603591;54;20077;31
2022/09/30 13:36:59;;;;;;;11.65;4.65;;;16.20;99.90;;;;;;2603405;54;20038;31
2022/09/30 13:39:45;;;;;;;4.85;3.85;;;16.20;99.90;;;;;;2603396;54;20022;31
2022/09/30 13:42:25;;;;;;;7.03;3.63;;;16.20;99.90;;;;;;2603397;54;20031;31
2022/09/30 13:45:03;;;;;;;7.28;3.63;;;16.20;99.90;;;;;;2603665;54;20104;31
2022/09/30 13:47:41;;;;;;;6.03;4.25;;;16.20;99.90;;;;;;2603521;54;20030;31
2022/09/30 13:50:21;;;;;;;4.30;3.60;;;16.10;99.90;;;;;;2621759;46;20851;31